createdAt,value
2023-02-18T00:02:26.326Z,99925.31
2023-02-18T00:07:28.119Z,99926.34
2023-02-18T00:12:31.329Z,99922.31
2023-02-18T00:17:32.982Z,99917.94
2023-02-18T00:22:34.923Z,99933.25
2023-02-18T00:27:36.532Z,99923.69
2023-02-18T00:32:38.163Z,99920.00
2023-02-18T00:37:39.781Z,99930.94
2023-02-18T00:42:41.439Z,99932.56
2023-02-18T00:47:43.493Z,99939.31
2023-02-18T00:52:45.773Z,99937.97
2023-02-18T00:57:47.393Z,99938.34
2023-02-18T01:02:49.051Z,99936.13
2023-02-18T01:07:50.692Z,99933.09
2023-02-18T01:12:52.315Z,99946.34
2023-02-18T01:17:53.953Z,99940.97
2023-02-18T01:22:55.573Z,99960.47
2023-02-18T01:27:57.527Z,99954.72
2023-02-18T01:32:59.232Z,99956.72
2023-02-18T01:38:00.907Z,99946.78
2023-02-18T01:43:03.001Z,99946.25
2023-02-18T01:48:07.362Z,99946.56
2023-02-18T01:53:09.273Z,99941.81
2023-02-18T01:58:13.677Z,99944.13
2023-02-18T02:03:15.397Z,99932.69
2023-02-18T02:08:18.605Z,99922.94
2023-02-18T02:13:40.469Z,99933.69
2023-02-18T02:19:00.355Z,99948.09
2023-02-18T02:24:04.787Z,99956.19
2023-02-18T02:29:37.320Z,99946.59
2023-02-18T02:34:46.588Z,99930.34
2023-02-18T02:40:06.901Z,99949.63
2023-02-18T02:45:33.594Z,99960.41
2023-02-18T02:50:43.992Z,99960.41
2023-02-18T02:55:46.073Z,99961.84
2023-02-18T03:01:21.074Z,99947.09
2023-02-18T03:06:32.116Z,99947.41
2023-02-18T03:11:44.402Z,99955.94
2023-02-18T03:16:58.201Z,99961.16
2023-02-18T03:22:09.221Z,99959.47
2023-02-18T03:27:19.607Z,99961.31
2023-02-18T03:32:24.041Z,99948.00
2023-02-18T03:37:27.321Z,99949.38
2023-02-18T03:42:29.680Z,99936.59
2023-02-18T03:47:31.471Z,99948.19
2023-02-18T03:52:33.180Z,99942.28
2023-02-18T03:57:34.949Z,99938.44
2023-02-18T04:02:36.611Z,99919.50
2023-02-18T04:07:38.282Z,99944.31
2023-02-18T04:12:40.075Z,99949.44
2023-02-18T04:17:41.789Z,99947.25
2023-02-18T04:22:43.440Z,99952.06
2023-02-18T04:27:45.186Z,99958.78
2023-02-18T04:32:46.970Z,99959.94
2023-02-18T04:37:48.593Z,99949.25
2023-02-18T04:42:50.195Z,99942.69
2023-02-18T04:47:52.209Z,99928.59
2023-02-18T04:52:53.907Z,99940.63
2023-02-18T04:57:55.516Z,99932.78
2023-02-18T05:02:57.151Z,99937.47
2023-02-18T05:07:58.774Z,99957.63
2023-02-18T05:13:00.817Z,99954.03
2023-02-18T05:18:02.438Z,99946.84
2023-02-18T05:23:04.047Z,99932.59
2023-02-18T05:28:05.664Z,99913.91
2023-02-18T05:33:07.290Z,99916.56
2023-02-18T05:38:10.011Z,99910.97
2023-02-18T05:43:12.210Z,99897.56
2023-02-18T05:48:13.996Z,99899.91
2023-02-18T05:53:17.568Z,99881.88
2023-02-18T05:58:19.330Z,99886.78
2023-02-18T06:03:20.985Z,99884.81
2023-02-18T06:08:22.701Z,99878.25
2023-02-18T06:13:24.465Z,99879.63
2023-02-18T06:18:26.172Z,99888.44
2023-02-18T06:23:27.872Z,99886.91
2023-02-18T06:28:29.497Z,99875.94
2023-02-18T06:33:31.111Z,99878.59
2023-02-18T06:38:33.196Z,99886.94
2023-02-18T06:43:35.586Z,99879.13
2023-02-18T06:48:38.220Z,99866.56
2023-02-18T06:53:40.142Z,99856.38
2023-02-18T06:58:41.795Z,99842.00
2023-02-18T07:03:43.460Z,99847.00
2023-02-18T07:08:45.094Z,99843.88
2023-02-18T07:13:46.690Z,99859.31
2023-02-18T07:18:48.365Z,99847.50
2023-02-18T07:23:50.098Z,99830.56
2023-02-18T07:28:51.888Z,99815.94
2023-02-18T07:33:53.494Z,99819.31
2023-02-18T07:38:55.347Z,99755.34
2023-02-18T07:43:56.988Z,99769.38
2023-02-18T07:48:58.645Z,99788.59
2023-02-18T07:54:00.319Z,99774.31
2023-02-18T07:59:01.939Z,99777.59
2023-02-18T08:04:04.175Z,99768.56
2023-02-18T08:09:06.439Z,99760.75
2023-02-18T08:14:08.555Z,99756.50
2023-02-18T08:19:10.417Z,99745.53
2023-02-18T08:24:12.212Z,99745.53
2023-02-18T08:29:13.805Z,99731.13
2023-02-18T08:34:15.418Z,99721.75
2023-02-18T08:39:17.007Z,99715.38
2023-02-18T08:44:18.632Z,99694.75
2023-02-18T08:49:24.342Z,99688.72
2023-02-18T08:54:26.155Z,99689.03
2023-02-18T08:59:27.803Z,99680.81
2023-02-18T09:04:30.017Z,99668.56
2023-02-18T09:09:31.768Z,99662.06
2023-02-18T09:14:33.446Z,99648.16
2023-02-18T09:19:35.083Z,99638.19
2023-02-18T09:24:38.601Z,99639.16
2023-02-18T09:29:41.058Z,99641.44
2023-02-18T09:34:42.663Z,99615.16
2023-02-18T09:39:44.272Z,99611.53
2023-02-18T09:44:52.467Z,99596.63
2023-02-18T09:50:28.336Z,99587.88
2023-02-18T09:55:36.338Z,99584.13
2023-02-18T10:00:48.544Z,99578.78
2023-02-18T10:06:06.922Z,99570.88
2023-02-18T10:11:21.897Z,99572.44
2023-02-18T10:16:25.071Z,99562.41
2023-02-18T10:21:30.633Z,99568.97
2023-02-18T10:26:37.169Z,99547.84
2023-02-18T10:31:50.087Z,99533.41
2023-02-18T10:36:56.331Z,99526.28
2023-02-18T10:42:19.446Z,99530.19
2023-02-18T10:47:43.111Z,99516.09
2023-02-18T10:52:49.613Z,99495.19
2023-02-18T10:57:54.722Z,99489.75
2023-02-18T11:03:24.566Z,99476.81
2023-02-18T11:08:29.097Z,99459.75
2023-02-18T11:13:32.876Z,99459.81
2023-02-18T11:18:40.313Z,99443.59
2023-02-18T11:23:50.862Z,99409.38
2023-02-18T11:29:00.605Z,99407.88
2023-02-18T11:34:03.310Z,99406.94
2023-02-18T11:39:16.356Z,99391.44
2023-02-18T11:44:23.949Z,99396.72
2023-02-18T11:49:26.246Z,99395.09
2023-02-18T11:54:31.342Z,99382.06
2023-02-18T11:59:37.928Z,99390.84
2023-02-18T12:04:58.127Z,99383.50
2023-02-18T12:10:12.606Z,99379.19
2023-02-18T12:15:19.018Z,99377.00
2023-02-18T12:21:02.338Z,99370.41
2023-02-18T12:26:22.580Z,99365.66
2023-02-18T12:31:42.534Z,99355.34
2023-02-18T12:36:59.183Z,99376.06
2023-02-18T12:42:15.833Z,99359.66
2023-02-18T12:47:29.102Z,99360.31
2023-02-18T12:53:10.051Z,99372.59
2023-02-18T12:58:20.499Z,99377.44
2023-02-18T13:04:06.034Z,99361.47
2023-02-18T13:09:22.690Z,99368.78
2023-02-18T13:14:29.718Z,99371.31
2023-02-18T13:19:36.768Z,99350.38
2023-02-18T13:24:44.843Z,99341.19
2023-02-18T13:30:15.326Z,99356.94
2023-02-18T13:35:25.233Z,99366.44
2023-02-18T13:40:30.667Z,99330.84
2023-02-18T13:45:34.050Z,99367.59
2023-02-18T13:50:43.594Z,99349.97
2023-02-18T13:56:00.352Z,99374.66
2023-02-18T14:01:06.781Z,99356.00
2023-02-18T14:06:15.834Z,99365.91
2023-02-18T14:11:17.474Z,99367.13
2023-02-18T14:16:19.438Z,99364.91
2023-02-18T14:21:34.869Z,99366.84
2023-02-18T14:26:48.601Z,99391.84
2023-02-18T14:31:54.726Z,99364.69
2023-02-18T14:37:17.570Z,99361.63
2023-02-18T14:42:25.034Z,99374.88
2023-02-18T14:47:38.648Z,99392.13
2023-02-18T14:52:47.689Z,99387.66
2023-02-18T14:58:02.671Z,99400.84
2023-02-18T15:03:04.347Z,99417.88
2023-02-18T15:08:14.346Z,99414.91
2023-02-18T15:13:29.776Z,99426.25
2023-02-18T15:18:41.640Z,99403.19
2023-02-18T15:23:43.260Z,99407.31
2023-02-18T15:29:04.897Z,99416.84
2023-02-18T15:34:31.270Z,99441.31
2023-02-18T15:39:33.147Z,99444.59
2023-02-18T15:44:36.774Z,99440.78
2023-02-18T15:49:40.257Z,99461.88
2023-02-18T15:54:42.818Z,99443.88
2023-02-18T15:59:54.913Z,99444.50
2023-02-18T16:05:00.534Z,99450.94
2023-02-18T16:10:16.526Z,99444.97
2023-02-18T16:15:28.976Z,99451.72
2023-02-18T16:20:38.839Z,99455.16
2023-02-18T16:25:46.600Z,99462.59
2023-02-18T16:30:48.246Z,99466.94
2023-02-18T16:35:50.978Z,99489.19
2023-02-18T16:40:54.497Z,99497.94
2023-02-18T16:45:57.953Z,99497.53
2023-02-18T16:51:02.528Z,99504.22
2023-02-18T16:56:04.412Z,99511.72
2023-02-18T17:01:06.268Z,99477.44
2023-02-18T17:06:08.329Z,99504.50
2023-02-18T17:11:26.163Z,99520.53
2023-02-18T17:16:28.183Z,99525.91
2023-02-18T17:21:29.815Z,99534.59
2023-02-18T17:26:31.963Z,99531.22
2023-02-18T17:31:36.512Z,99545.94
2023-02-18T17:36:39.626Z,99534.41
2023-02-18T17:41:42.411Z,99524.13
2023-02-18T17:46:44.332Z,99550.81
2023-02-18T17:51:46.088Z,99554.47
2023-02-18T17:56:47.702Z,99572.78
2023-02-18T18:01:49.389Z,99566.34
2023-02-18T18:06:51.205Z,99570.88
2023-02-18T18:11:52.857Z,99589.03
2023-02-18T18:16:54.516Z,99593.16
2023-02-18T18:21:56.146Z,99606.88
2023-02-18T18:26:57.803Z,99609.63
2023-02-18T18:31:59.457Z,99637.47
2023-02-18T18:37:01.061Z,99627.97
2023-02-18T18:42:02.672Z,99627.16
2023-02-18T18:47:04.353Z,99622.75
2023-02-18T18:52:06.035Z,99627.75
2023-02-18T18:57:07.639Z,99620.88
2023-02-18T19:02:19.804Z,99633.72
2023-02-18T19:07:21.440Z,99636.28
2023-02-18T19:12:23.187Z,99639.94
2023-02-18T19:17:24.784Z,99637.97
2023-02-18T19:22:26.368Z,99645.38
2023-02-18T19:27:28.050Z,99635.13
2023-02-18T19:32:29.668Z,99650.94
2023-02-18T19:37:33.039Z,99636.22
2023-02-18T19:42:34.706Z,99647.31
2023-02-18T19:47:36.585Z,99653.38
2023-02-18T19:52:38.261Z,99658.59
2023-02-18T19:57:39.908Z,99648.72
2023-02-18T20:02:41.911Z,99658.97
2023-02-18T20:07:46.136Z,99658.28
2023-02-18T20:12:54.214Z,99665.81
2023-02-18T20:17:55.924Z,99658.78
2023-02-18T20:22:57.572Z,99676.25
2023-02-18T20:28:01.525Z,99663.66
2023-02-18T20:33:03.439Z,99674.88
2023-02-18T20:38:05.032Z,99675.06
2023-02-18T20:43:06.637Z,99689.34
2023-02-18T20:48:08.360Z,99690.50
2023-02-18T20:53:09.959Z,99704.28
2023-02-18T20:58:11.600Z,99686.00
2023-02-18T21:03:13.203Z,99688.84
2023-02-18T21:08:14.794Z,99684.81
2023-02-18T21:13:16.464Z,99685.66
2023-02-18T21:18:18.486Z,99681.97
2023-02-18T21:23:20.167Z,99685.66
2023-02-18T21:28:21.771Z,99683.97
2023-02-18T21:33:23.472Z,99692.53
2023-02-18T21:38:25.098Z,99679.28
2023-02-18T21:43:26.802Z,99687.16
2023-02-18T21:48:46.898Z,99681.97
2023-02-18T21:53:48.516Z,99668.03
2023-02-18T21:58:50.108Z,99662.50
2023-02-18T22:03:53.533Z,99669.72
2023-02-18T22:08:55.136Z,99677.09
2023-02-18T22:13:57.069Z,99665.34
2023-02-18T22:18:58.764Z,99673.41
2023-02-18T22:24:00.414Z,99682.63
2023-02-18T22:29:02.414Z,99692.69
2023-02-18T22:34:04.056Z,99701.44
2023-02-18T22:39:06.369Z,99690.22
2023-02-18T22:44:11.350Z,99679.97
2023-02-18T22:49:13.190Z,99679.47
2023-02-18T22:54:16.595Z,99671.09
2023-02-18T22:59:19.338Z,99693.06
2023-02-18T23:04:21.929Z,99689.22
2023-02-18T23:09:25.151Z,99675.94
2023-02-18T23:14:29.746Z,99684.50
2023-02-18T23:19:32.575Z,99688.84
2023-02-18T23:24:36.154Z,99680.78
2023-02-18T23:29:38.417Z,99677.44
2023-02-18T23:34:40.305Z,99678.78
2023-02-18T23:39:42.039Z,99684.16
2023-02-18T23:44:43.706Z,99676.25
2023-02-18T23:49:45.310Z,99668.19
2023-02-18T23:54:46.908Z,99666.03
2023-02-18T23:59:48.509Z,99654.63
